sensor_id;sensor_type;location;lat;lon;timestamp;temperature;humidity
37530;DHT22;23374;52.758;6.872;2023-12-04T00:00:43;0.80;1.00
37530;DHT22;23374;52.758;6.872;2023-12-04T00:03:03;0.80;1.00
37530;DHT22;23374;52.758;6.872;2023-12-04T00:05:25;0.80;1.00
37530;DHT22;23374;52.758;6.872;2023-12-04T00:07:49;0.80;1.00
37530;DHT22;23374;52.758;6.872;2023-12-04T00:10:10;0.80;1.00
37530;DHT22;23374;52.758;6.872;2023-12-04T00:12:31;0.80;1.00
37530;DHT22;23374;52.758;6.872;2023-12-04T00:14:52;0.80;1.00
37530;DHT22;23374;52.758;6.872;2023-12-04T00:17:13;0.90;1.00
37530;DHT22;23374;52.758;6.872;2023-12-04T00:19:40;0.80;1.00
37530;DHT22;23374;52.758;6.872;2023-12-04T00:22:00;0.80;1.00
37530;DHT22;23374;52.758;6.872;2023-12-04T00:24:21;0.80;1.00
37530;DHT22;23374;52.758;6.872;2023-12-04T00:26:41;0.80;1.00
37530;DHT22;23374;52.758;6.872;2023-12-04T00:29:02;0.80;1.00
37530;DHT22;23374;52.758;6.872;2023-12-04T00:31:23;0.80;1.00
37530;DHT22;23374;52.758;6.872;2023-12-04T00:33:44;0.80;1.00
37530;DHT22;23374;52.758;6.872;2023-12-04T00:36:05;0.80;1.00
37530;DHT22;23374;52.758;6.872;2023-12-04T00:38:27;0.80;1.00
37530;DHT22;23374;52.758;6.872;2023-12-04T00:40:47;0.80;1.00
37530;DHT22;23374;52.758;6.872;2023-12-04T00:43:08;0.70;1.00
37530;DHT22;23374;52.758;6.872;2023-12-04T00:45:29;0.70;1.00
37530;DHT22;23374;52.758;6.872;2023-12-04T00:47:50;0.70;1.00
37530;DHT22;23374;52.758;6.872;2023-12-04T00:50:11;0.70;1.00
37530;DHT22;23374;52.758;6.872;2023-12-04T00:52:32;0.80;1.00
37530;DHT22;23374;52.758;6.872;2023-12-04T00:54:52;0.80;1.00
37530;DHT22;23374;52.758;6.872;2023-12-04T00:57:16;0.80;1.00
37530;DHT22;23374;52.758;6.872;2023-12-04T00:59:37;0.80;1.00
37530;DHT22;23374;52.758;6.872;2023-12-04T01:01:57;0.70;1.00
37530;DHT22;23374;52.758;6.872;2023-12-04T01:04:18;0.70;1.00
37530;DHT22;23374;52.758;6.872;2023-12-04T01:06:38;0.70;1.00
37530;DHT22;23374;52.758;6.872;2023-12-04T01:08:59;0.70;1.00
37530;DHT22;23374;52.758;6.872;2023-12-04T01:11:20;0.70;1.00
37530;DHT22;23374;52.758;6.872;2023-12-04T01:13:41;0.70;1.00
37530;DHT22;23374;52.758;6.872;2023-12-04T01:16:01;0.70;1.00
37530;DHT22;23374;52.758;6.872;2023-12-04T01:18:22;0.80;1.00
37530;DHT22;23374;52.758;6.872;2023-12-04T01:20:42;0.80;1.00
37530;DHT22;23374;52.758;6.872;2023-12-04T01:23:03;0.80;1.00
37530;DHT22;23374;52.758;6.872;2023-12-04T01:25:23;0.80;1.00
37530;DHT22;23374;52.758;6.872;2023-12-04T01:27:44;0.80;1.00
37530;DHT22;23374;52.758;6.872;2023-12-04T01:30:07;0.70;1.00
37530;DHT22;23374;52.758;6.872;2023-12-04T01:32:29;0.80;1.00
37530;DHT22;23374;52.758;6.872;2023-12-04T01:34:50;0.80;1.00
37530;DHT22;23374;52.758;6.872;2023-12-04T01:37:10;0.80;1.00
37530;DHT22;23374;52.758;6.872;2023-12-04T01:39:30;0.80;1.00
37530;DHT22;23374;52.758;6.872;2023-12-04T01:41:51;0.80;1.00
37530;DHT22;23374;52.758;6.872;2023-12-04T01:44:12;0.80;1.00
37530;DHT22;23374;52.758;6.872;2023-12-04T01:46:32;0.70;1.00
37530;DHT22;23374;52.758;6.872;2023-12-04T01:48:53;0.80;1.00
37530;DHT22;23374;52.758;6.872;2023-12-04T01:51:17;0.80;1.00
37530;DHT22;23374;52.758;6.872;2023-12-04T01:53:39;0.80;1.00
37530;DHT22;23374;52.758;6.872;2023-12-04T01:56:00;0.80;1.00
37530;DHT22;23374;52.758;6.872;2023-12-04T01:58:21;0.80;1.00
37530;DHT22;23374;52.758;6.872;2023-12-04T02:00:42;0.80;1.00
37530;DHT22;23374;52.758;6.872;2023-12-04T02:03:03;0.80;1.00
37530;DHT22;23374;52.758;6.872;2023-12-04T02:05:23;0.80;1.00
37530;DHT22;23374;52.758;6.872;2023-12-04T02:07:44;0.80;1.00
37530;DHT22;23374;52.758;6.872;2023-12-04T02:10:06;0.90;1.00
37530;DHT22;23374;52.758;6.872;2023-12-04T02:12:26;0.80;1.00
37530;DHT22;23374;52.758;6.872;2023-12-04T02:14:47;0.90;1.00
37530;DHT22;23374;52.758;6.872;2023-12-04T02:17:08;0.90;1.00
37530;DHT22;23374;52.758;6.872;2023-12-04T02:19:29;0.90;1.00
37530;DHT22;23374;52.758;6.872;2023-12-04T02:21:49;0.90;1.00
37530;DHT22;23374;52.758;6.872;2023-12-04T02:24:10;0.90;1.00
37530;DHT22;23374;52.758;6.872;2023-12-04T02:26:38;0.90;1.00
37530;DHT22;23374;52.758;6.872;2023-12-04T02:29:07;0.90;1.00
37530;DHT22;23374;52.758;6.872;2023-12-04T02:31:33;0.90;1.00
37530;DHT22;23374;52.758;6.872;2023-12-04T02:33:56;1.00;1.00
37530;DHT22;23374;52.758;6.872;2023-12-04T02:36:18;0.90;1.00
37530;DHT22;23374;52.758;6.872;2023-12-04T02:38:40;0.90;1.00
37530;DHT22;23374;52.758;6.872;2023-12-04T02:41:01;0.90;1.00
37530;DHT22;23374;52.758;6.872;2023-12-04T02:43:21;0.90;1.00
37530;DHT22;23374;52.758;6.872;2023-12-04T02:45:42;0.90;1.00
37530;DHT22;23374;52.758;6.872;2023-12-04T02:48:03;0.90;1.00
37530;DHT22;23374;52.758;6.872;2023-12-04T02:50:24;0.90;1.00
37530;DHT22;23374;52.758;6.872;2023-12-04T02:52:44;0.90;1.00
37530;DHT22;23374;52.758;6.872;2023-12-04T02:55:06;0.90;1.00
37530;DHT22;23374;52.758;6.872;2023-12-04T02:57:27;1.00;1.00
37530;DHT22;23374;52.758;6.872;2023-12-04T02:59:48;1.00;1.00
37530;DHT22;23374;52.758;6.872;2023-12-04T03:02:08;1.00;1.00
37530;DHT22;23374;52.758;6.872;2023-12-04T03:04:31;0.90;99.90
37530;DHT22;23374;52.758;6.872;2023-12-04T03:06:51;0.90;1.00
37530;DHT22;23374;52.758;6.872;2023-12-04T03:09:11;0.90;1.00
37530;DHT22;23374;52.758;6.872;2023-12-04T03:11:32;0.90;1.00
37530;DHT22;23374;52.758;6.872;2023-12-04T03:13:52;0.90;1.00
37530;DHT22;23374;52.758;6.872;2023-12-04T03:16:19;0.90;1.00
37530;DHT22;23374;52.758;6.872;2023-12-04T03:18:39;1.00;1.00
37530;DHT22;23374;52.758;6.872;2023-12-04T03:21:00;1.00;1.00
37530;DHT22;23374;52.758;6.872;2023-12-04T03:23:20;1.00;1.00
37530;DHT22;23374;52.758;6.872;2023-12-04T03:25:40;1.00;1.00
37530;DHT22;23374;52.758;6.872;2023-12-04T03:28:01;1.00;99.90
37530;DHT22;23374;52.758;6.872;2023-12-04T03:30:21;1.00;99.90
37530;DHT22;23374;52.758;6.872;2023-12-04T03:32:41;1.00;99.90
37530;DHT22;23374;52.758;6.872;2023-12-04T03:35:02;0.90;99.90
37530;DHT22;23374;52.758;6.872;2023-12-04T03:37:22;1.00;1.00
37530;DHT22;23374;52.758;6.872;2023-12-04T03:39:42;1.00;99.90
37530;DHT22;23374;52.758;6.872;2023-12-04T03:42:04;1.00;99.90
37530;DHT22;23374;52.758;6.872;2023-12-04T03:44:25;1.00;99.90
37530;DHT22;23374;52.758;6.872;2023-12-04T03:46:45;1.00;1.00
37530;DHT22;23374;52.758;6.872;2023-12-04T03:49:06;1.00;99.90
37530;DHT22;23374;52.758;6.872;2023-12-04T03:51:26;1.00;99.90
37530;DHT22;23374;52.758;6.872;2023-12-04T03:53:47;1.00;99.90
37530;DHT22;23374;52.758;6.872;2023-12-04T03:56:10;0.90;99.90
37530;DHT22;23374;52.758;6.872;2023-12-04T03:58:32;1.00;99.90
37530;DHT22;23374;52.758;6.872;2023-12-04T04:00:52;0.90;99.90
37530;DHT22;23374;52.758;6.872;2023-12-04T04:03:12;1.00;99.90
37530;DHT22;23374;52.758;6.872;2023-12-04T04:05:33;1.00;99.90
37530;DHT22;23374;52.758;6.872;2023-12-04T04:07:54;1.00;99.90
37530;DHT22;23374;52.758;6.872;2023-12-04T04:10:14;1.00;99.90
37530;DHT22;23374;52.758;6.872;2023-12-04T04:12:34;1.00;99.90
37530;DHT22;23374;52.758;6.872;2023-12-04T04:14:55;1.00;99.90
37530;DHT22;23374;52.758;6.872;2023-12-04T04:17:16;1.00;99.90
37530;DHT22;23374;52.758;6.872;2023-12-04T04:19:36;1.00;99.90
37530;DHT22;23374;52.758;6.872;2023-12-04T04:21:56;1.00;99.90
37530;DHT22;23374;52.758;6.872;2023-12-04T04:24:17;1.00;99.90
37530;DHT22;23374;52.758;6.872;2023-12-04T04:26:37;1.00;99.90
37530;DHT22;23374;52.758;6.872;2023-12-04T04:28:58;1.00;99.90
37530;DHT22;23374;52.758;6.872;2023-12-04T04:31:18;1.00;99.90
37530;DHT22;23374;52.758;6.872;2023-12-04T04:33:39;1.00;99.90
37530;DHT22;23374;52.758;6.872;2023-12-04T04:35:59;1.00;99.90
37530;DHT22;23374;52.758;6.872;2023-12-04T04:38:19;1.00;99.90
37530;DHT22;23374;52.758;6.872;2023-12-04T04:40:39;1.10;99.90
37530;DHT22;23374;52.758;6.872;2023-12-04T04:43:02;1.00;99.90
37530;DHT22;23374;52.758;6.872;2023-12-04T04:45:23;1.10;99.90
37530;DHT22;23374;52.758;6.872;2023-12-04T04:47:43;1.10;99.90
37530;DHT22;23374;52.758;6.872;2023-12-04T04:50:04;1.00;99.90
37530;DHT22;23374;52.758;6.872;2023-12-04T04:52:24;1.00;99.90
37530;DHT22;23374;52.758;6.872;2023-12-04T04:54:44;1.00;99.90
37530;DHT22;23374;52.758;6.872;2023-12-04T04:57:05;1.00;99.90
37530;DHT22;23374;52.758;6.872;2023-12-04T04:59:25;1.10;99.90
37530;DHT22;23374;52.758;6.872;2023-12-04T05:01:47;1.10;99.90
37530;DHT22;23374;52.758;6.872;2023-12-04T05:04:07;1.10;99.90
37530;DHT22;23374;52.758;6.872;2023-12-04T05:06:28;1.10;99.90
37530;DHT22;23374;52.758;6.872;2023-12-04T05:08:49;1.10;99.90
37530;DHT22;23374;52.758;6.872;2023-12-04T05:11:15;1.10;99.90
37530;DHT22;23374;52.758;6.872;2023-12-04T05:13:35;1.10;98.10
37530;DHT22;23374;52.758;6.872;2023-12-04T05:15:56;1.10;99.90
37530;DHT22;23374;52.758;6.872;2023-12-04T05:18:16;1.10;85.30
37530;DHT22;23374;52.758;6.872;2023-12-04T05:20:37;1.10;99.90
37530;DHT22;23374;52.758;6.872;2023-12-04T05:22:57;1.10;99.90
37530;DHT22;23374;52.758;6.872;2023-12-04T05:25:17;1.10;51.40
37530;DHT22;23374;52.758;6.872;2023-12-04T05:27:38;1.20;54.40
37530;DHT22;23374;52.758;6.872;2023-12-04T05:29:58;1.20;9.70
37530;DHT22;23374;52.758;6.872;2023-12-04T05:32:18;1.10;1.00
37530;DHT22;23374;52.758;6.872;2023-12-04T05:34:39;1.10;17.30
37530;DHT22;23374;52.758;6.872;2023-12-04T05:36:59;1.10;1.00
37530;DHT22;23374;52.758;6.872;2023-12-04T05:39:20;1.20;86.70
37530;DHT22;23374;52.758;6.872;2023-12-04T05:41:40;1.10;1.00
37530;DHT22;23374;52.758;6.872;2023-12-04T05:44:00;1.20;36.20
37530;DHT22;23374;52.758;6.872;2023-12-04T05:46:21;1.20;28.10
37530;DHT22;23374;52.758;6.872;2023-12-04T05:48:41;1.20;39.10
37530;DHT22;23374;52.758;6.872;2023-12-04T05:51:03;1.20;1.00
37530;DHT22;23374;52.758;6.872;2023-12-04T05:53:24;1.10;1.00
37530;DHT22;23374;52.758;6.872;2023-12-04T05:55:45;1.20;1.00
37530;DHT22;23374;52.758;6.872;2023-12-04T05:58:06;1.20;9.10
37530;DHT22;23374;52.758;6.872;2023-12-04T06:00:26;1.20;1.00
37530;DHT22;23374;52.758;6.872;2023-12-04T06:02:46;1.20;1.00
37530;DHT22;23374;52.758;6.872;2023-12-04T06:05:07;1.20;1.00
37530;DHT22;23374;52.758;6.872;2023-12-04T06:07:27;1.20;1.00
37530;DHT22;23374;52.758;6.872;2023-12-04T06:09:48;1.20;1.00
37530;DHT22;23374;52.758;6.872;2023-12-04T06:12:08;1.20;1.00
37530;DHT22;23374;52.758;6.872;2023-12-04T06:14:29;1.20;1.00
37530;DHT22;23374;52.758;6.872;2023-12-04T06:16:50;1.10;1.00
37530;DHT22;23374;52.758;6.872;2023-12-04T06:19:10;1.10;1.00
37530;DHT22;23374;52.758;6.872;2023-12-04T06:21:31;1.10;1.00
37530;DHT22;23374;52.758;6.872;2023-12-04T06:23:52;1.10;1.00
37530;DHT22;23374;52.758;6.872;2023-12-04T06:26:14;1.00;1.00
37530;DHT22;23374;52.758;6.872;2023-12-04T06:28:35;1.10;1.00
37530;DHT22;23374;52.758;6.872;2023-12-04T06:30:56;1.00;1.00
37530;DHT22;23374;52.758;6.872;2023-12-04T06:33:18;1.10;1.00
37530;DHT22;23374;52.758;6.872;2023-12-04T06:35:41;1.00;1.00
37530;DHT22;23374;52.758;6.872;2023-12-04T06:38:07;1.00;1.00
37530;DHT22;23374;52.758;6.872;2023-12-04T06:40:29;1.00;1.00
37530;DHT22;23374;52.758;6.872;2023-12-04T06:42:50;1.00;1.00
37530;DHT22;23374;52.758;6.872;2023-12-04T06:45:12;1.00;1.00
37530;DHT22;23374;52.758;6.872;2023-12-04T06:47:33;1.00;1.00
37530;DHT22;23374;52.758;6.872;2023-12-04T06:49:54;1.00;1.00
37530;DHT22;23374;52.758;6.872;2023-12-04T06:52:14;1.00;1.00
37530;DHT22;23374;52.758;6.872;2023-12-04T06:54:35;1.00;1.00
37530;DHT22;23374;52.758;6.872;2023-12-04T06:56:55;1.00;1.00
37530;DHT22;23374;52.758;6.872;2023-12-04T06:59:20;1.00;1.00
37530;DHT22;23374;52.758;6.872;2023-12-04T07:01:41;1.00;1.00
37530;DHT22;23374;52.758;6.872;2023-12-04T07:04:01;1.00;1.00
37530;DHT22;23374;52.758;6.872;2023-12-04T07:06:22;1.00;1.00
37530;DHT22;23374;52.758;6.872;2023-12-04T07:08:43;1.00;1.00
37530;DHT22;23374;52.758;6.872;2023-12-04T07:11:04;1.00;1.00
37530;DHT22;23374;52.758;6.872;2023-12-04T07:13:26;1.00;1.00
37530;DHT22;23374;52.758;6.872;2023-12-04T07:15:46;1.00;1.00
37530;DHT22;23374;52.758;6.872;2023-12-04T07:18:06;1.00;1.00
37530;DHT22;23374;52.758;6.872;2023-12-04T07:20:27;1.00;1.00
37530;DHT22;23374;52.758;6.872;2023-12-04T07:22:47;0.90;1.00
37530;DHT22;23374;52.758;6.872;2023-12-04T07:25:08;0.90;99.90
37530;DHT22;23374;52.758;6.872;2023-12-04T07:27:29;0.90;99.90
37530;DHT22;23374;52.758;6.872;2023-12-04T07:29:49;0.90;99.90
37530;DHT22;23374;52.758;6.872;2023-12-04T07:32:09;0.90;99.90
37530;DHT22;23374;52.758;6.872;2023-12-04T07:34:30;0.90;99.90
37530;DHT22;23374;52.758;6.872;2023-12-04T07:36:50;1.00;99.90
37530;DHT22;23374;52.758;6.872;2023-12-04T07:39:11;1.00;99.90
37530;DHT22;23374;52.758;6.872;2023-12-04T07:41:31;1.00;99.90
37530;DHT22;23374;52.758;6.872;2023-12-04T07:43:51;1.00;99.90
37530;DHT22;23374;52.758;6.872;2023-12-04T07:46:12;1.10;99.90
37530;DHT22;23374;52.758;6.872;2023-12-04T07:48:34;1.10;78.30
37530;DHT22;23374;52.758;6.872;2023-12-04T07:50:54;1.10;93.70
37530;DHT22;23374;52.758;6.872;2023-12-04T07:53:15;1.10;56.30
37530;DHT22;23374;52.758;6.872;2023-12-04T07:55:35;1.10;30.40
37530;DHT22;23374;52.758;6.872;2023-12-04T07:57:56;1.10;17.70
37530;DHT22;23374;52.758;6.872;2023-12-04T08:00:17;1.10;1.00
37530;DHT22;23374;52.758;6.872;2023-12-04T08:02:42;1.10;1.00
37530;DHT22;23374;52.758;6.872;2023-12-04T08:05:05;1.10;1.00
37530;DHT22;23374;52.758;6.872;2023-12-04T08:07:26;1.10;1.00
37530;DHT22;23374;52.758;6.872;2023-12-04T08:09:46;1.10;1.00
37530;DHT22;23374;52.758;6.872;2023-12-04T08:12:07;1.10;1.00
37530;DHT22;23374;52.758;6.872;2023-12-04T08:14:28;1.10;1.00
37530;DHT22;23374;52.758;6.872;2023-12-04T08:16:49;1.20;1.00
37530;DHT22;23374;52.758;6.872;2023-12-04T08:19:10;1.10;1.00
37530;DHT22;23374;52.758;6.872;2023-12-04T08:21:30;1.10;1.00
37530;DHT22;23374;52.758;6.872;2023-12-04T08:23:52;1.10;1.00
37530;DHT22;23374;52.758;6.872;2023-12-04T08:26:13;1.10;1.00
37530;DHT22;23374;52.758;6.872;2023-12-04T08:28:34;1.10;1.00
37530;DHT22;23374;52.758;6.872;2023-12-04T08:30:57;1.20;1.00
37530;DHT22;23374;52.758;6.872;2023-12-04T08:33:17;1.20;1.00
37530;DHT22;23374;52.758;6.872;2023-12-04T08:35:40;1.20;1.00
37530;DHT22;23374;52.758;6.872;2023-12-04T08:38:00;1.20;1.00
37530;DHT22;23374;52.758;6.872;2023-12-04T08:40:21;1.20;1.00
37530;DHT22;23374;52.758;6.872;2023-12-04T08:42:43;1.20;1.00
37530;DHT22;23374;52.758;6.872;2023-12-04T08:45:06;1.20;1.00
37530;DHT22;23374;52.758;6.872;2023-12-04T08:47:26;1.20;1.00
37530;DHT22;23374;52.758;6.872;2023-12-04T08:49:47;1.30;1.00
37530;DHT22;23374;52.758;6.872;2023-12-04T08:52:07;1.30;1.00
37530;DHT22;23374;52.758;6.872;2023-12-04T08:54:28;1.30;99.90
37530;DHT22;23374;52.758;6.872;2023-12-04T08:56:48;1.30;99.90
37530;DHT22;23374;52.758;6.872;2023-12-04T08:59:08;1.30;99.90
37530;DHT22;23374;52.758;6.872;2023-12-04T09:01:28;1.30;99.90
37530;DHT22;23374;52.758;6.872;2023-12-04T09:03:49;1.30;1.00
37530;DHT22;23374;52.758;6.872;2023-12-04T09:06:09;1.40;99.90
37530;DHT22;23374;52.758;6.872;2023-12-04T09:08:30;1.40;99.90
37530;DHT22;23374;52.758;6.872;2023-12-04T09:10:52;1.40;99.90
37530;DHT22;23374;52.758;6.872;2023-12-04T09:13:14;1.40;99.90
37530;DHT22;23374;52.758;6.872;2023-12-04T09:15:35;1.40;99.90
37530;DHT22;23374;52.758;6.872;2023-12-04T09:17:55;1.40;99.90
37530;DHT22;23374;52.758;6.872;2023-12-04T09:20:15;1.40;99.90
37530;DHT22;23374;52.758;6.872;2023-12-04T09:22:35;1.50;99.90
37530;DHT22;23374;52.758;6.872;2023-12-04T09:24:58;1.50;99.90
37530;DHT22;23374;52.758;6.872;2023-12-04T09:27:18;1.50;99.90
37530;DHT22;23374;52.758;6.872;2023-12-04T09:29:40;1.50;99.90
37530;DHT22;23374;52.758;6.872;2023-12-04T09:32:00;1.50;99.90
37530;DHT22;23374;52.758;6.872;2023-12-04T09:34:20;1.50;99.90
37530;DHT22;23374;52.758;6.872;2023-12-04T09:36:43;1.60;99.90
37530;DHT22;23374;52.758;6.872;2023-12-04T09:39:03;1.60;33.60
37530;DHT22;23374;52.758;6.872;2023-12-04T09:41:24;1.60;40.00
37530;DHT22;23374;52.758;6.872;2023-12-04T09:43:45;1.70;97.20
37530;DHT22;23374;52.758;6.872;2023-12-04T09:46:07;1.70;1.00
37530;DHT22;23374;52.758;6.872;2023-12-04T09:48:31;1.70;1.00
37530;DHT22;23374;52.758;6.872;2023-12-04T09:50:53;1.70;1.00
37530;DHT22;23374;52.758;6.872;2023-12-04T09:53:14;1.70;1.00
37530;DHT22;23374;52.758;6.872;2023-12-04T09:55:34;1.80;1.00
37530;DHT22;23374;52.758;6.872;2023-12-04T09:57:55;1.80;1.00
37530;DHT22;23374;52.758;6.872;2023-12-04T10:00:17;1.80;1.00
37530;DHT22;23374;52.758;6.872;2023-12-04T10:02:41;1.80;1.00
37530;DHT22;23374;52.758;6.872;2023-12-04T10:05:02;1.90;1.00
37530;DHT22;23374;52.758;6.872;2023-12-04T10:07:25;1.90;1.00
37530;DHT22;23374;52.758;6.872;2023-12-04T10:09:45;2.00;1.00
37530;DHT22;23374;52.758;6.872;2023-12-04T10:12:06;2.00;1.00
37530;DHT22;23374;52.758;6.872;2023-12-04T10:14:27;2.10;1.00
37530;DHT22;23374;52.758;6.872;2023-12-04T10:16:48;2.10;1.00
37530;DHT22;23374;52.758;6.872;2023-12-04T10:19:27;2.10;1.00
37530;DHT22;23374;52.758;6.872;2023-12-04T10:21:50;2.10;99.90
37530;DHT22;23374;52.758;6.872;2023-12-04T10:24:11;2.10;1.00
37530;DHT22;23374;52.758;6.872;2023-12-04T10:26:31;2.10;1.00
37530;DHT22;23374;52.758;6.872;2023-12-04T10:29:02;2.20;1.00
37530;DHT22;23374;52.758;6.872;2023-12-04T10:31:24;2.20;1.00
37530;DHT22;23374;52.758;6.872;2023-12-04T10:33:45;2.20;99.90
37530;DHT22;23374;52.758;6.872;2023-12-04T10:36:12;2.20;99.90
37530;DHT22;23374;52.758;6.872;2023-12-04T10:38:32;2.20;1.00
37530;DHT22;23374;52.758;6.872;2023-12-04T10:40:53;2.20;99.90
37530;DHT22;23374;52.758;6.872;2023-12-04T10:43:19;2.20;99.90
37530;DHT22;23374;52.758;6.872;2023-12-04T10:45:42;2.30;99.90
37530;DHT22;23374;52.758;6.872;2023-12-04T10:48:03;2.30;99.90
37530;DHT22;23374;52.758;6.872;2023-12-04T10:50:24;2.30;99.90
37530;DHT22;23374;52.758;6.872;2023-12-04T10:52:46;2.30;99.90
37530;DHT22;23374;52.758;6.872;2023-12-04T10:55:07;2.30;99.90
37530;DHT22;23374;52.758;6.872;2023-12-04T10:57:37;2.30;89.40
37530;DHT22;23374;52.758;6.872;2023-12-04T11:00:05;2.30;88.90
37530;DHT22;23374;52.758;6.872;2023-12-04T11:02:28;2.30;99.90
37530;DHT22;23374;52.758;6.872;2023-12-04T11:04:57;2.30;99.90
37530;DHT22;23374;52.758;6.872;2023-12-04T11:07:19;2.30;50.20
37530;DHT22;23374;52.758;6.872;2023-12-04T11:09:41;2.30;1.00
37530;DHT22;23374;52.758;6.872;2023-12-04T11:12:06;2.30;27.80
37530;DHT22;23374;52.758;6.872;2023-12-04T11:14:42;2.30;88.00
37530;DHT22;23374;52.758;6.872;2023-12-04T11:17:07;2.30;1.00
37530;DHT22;23374;52.758;6.872;2023-12-04T11:20:10;2.30;60.10
37530;DHT22;23374;52.758;6.872;2023-12-04T11:22:31;2.40;1.00
37530;DHT22;23374;52.758;6.872;2023-12-04T11:24:52;2.40;24.10
37530;DHT22;23374;52.758;6.872;2023-12-04T11:27:13;2.40;1.00
37530;DHT22;23374;52.758;6.872;2023-12-04T11:29:36;2.40;1.00
37530;DHT22;23374;52.758;6.872;2023-12-04T11:31:57;2.40;1.00
37530;DHT22;23374;52.758;6.872;2023-12-04T11:34:17;2.40;1.00
37530;DHT22;23374;52.758;6.872;2023-12-04T11:36:38;2.40;1.00
37530;DHT22;23374;52.758;6.872;2023-12-04T11:39:00;2.50;1.00
37530;DHT22;23374;52.758;6.872;2023-12-04T11:41:23;2.50;1.00
37530;DHT22;23374;52.758;6.872;2023-12-04T11:43:46;2.50;1.00
37530;DHT22;23374;52.758;6.872;2023-12-04T11:46:08;2.50;1.00
37530;DHT22;23374;52.758;6.872;2023-12-04T11:48:29;2.60;1.00
37530;DHT22;23374;52.758;6.872;2023-12-04T11:50:49;2.60;1.00
37530;DHT22;23374;52.758;6.872;2023-12-04T11:53:11;2.60;1.00
37530;DHT22;23374;52.758;6.872;2023-12-04T11:55:35;2.60;1.00
37530;DHT22;23374;52.758;6.872;2023-12-04T11:58:00;2.60;1.00
37530;DHT22;23374;52.758;6.872;2023-12-04T12:00:22;2.60;1.00
37530;DHT22;23374;52.758;6.872;2023-12-04T12:03:16;2.70;1.00
37530;DHT22;23374;52.758;6.872;2023-12-04T12:05:37;2.70;1.00
37530;DHT22;23374;52.758;6.872;2023-12-04T12:08:02;2.70;1.00
37530;DHT22;23374;52.758;6.872;2023-12-04T12:10:23;2.70;1.00
37530;DHT22;23374;52.758;6.872;2023-12-04T12:12:43;2.80;1.00
37530;DHT22;23374;52.758;6.872;2023-12-04T12:15:07;2.80;1.00
37530;DHT22;23374;52.758;6.872;2023-12-04T12:17:28;2.80;1.00
37530;DHT22;23374;52.758;6.872;2023-12-04T12:19:48;2.80;1.00
37530;DHT22;23374;52.758;6.872;2023-12-04T12:22:09;2.80;1.00
37530;DHT22;23374;52.758;6.872;2023-12-04T12:24:29;2.90;1.00
37530;DHT22;23374;52.758;6.872;2023-12-04T12:26:49;2.90;1.00
37530;DHT22;23374;52.758;6.872;2023-12-04T12:29:11;2.80;99.90
37530;DHT22;23374;52.758;6.872;2023-12-04T12:31:32;2.80;99.90
37530;DHT22;23374;52.758;6.872;2023-12-04T12:33:52;2.80;99.90
37530;DHT22;23374;52.758;6.872;2023-12-04T12:36:13;2.80;99.90
37530;DHT22;23374;52.758;6.872;2023-12-04T12:38:34;2.80;99.90
37530;DHT22;23374;52.758;6.872;2023-12-04T12:40:56;2.80;99.90
37530;DHT22;23374;52.758;6.872;2023-12-04T12:43:20;2.90;99.90
37530;DHT22;23374;52.758;6.872;2023-12-04T12:45:44;2.90;99.90
37530;DHT22;23374;52.758;6.872;2023-12-04T12:48:05;2.90;1.00
37530;DHT22;23374;52.758;6.872;2023-12-04T12:50:26;2.90;1.00
37530;DHT22;23374;52.758;6.872;2023-12-04T12:52:49;2.90;99.90
37530;DHT22;23374;52.758;6.872;2023-12-04T12:55:09;2.90;1.00
37530;DHT22;23374;52.758;6.872;2023-12-04T12:57:30;2.90;99.90
37530;DHT22;23374;52.758;6.872;2023-12-04T12:59:50;2.90;99.90
37530;DHT22;23374;52.758;6.872;2023-12-04T13:02:11;2.90;99.90
37530;DHT22;23374;52.758;6.872;2023-12-04T13:04:41;2.80;99.90
37530;DHT22;23374;52.758;6.872;2023-12-04T13:07:03;2.90;99.90
37530;DHT22;23374;52.758;6.872;2023-12-04T13:09:26;2.90;1.00
37530;DHT22;23374;52.758;6.872;2023-12-04T13:11:46;2.90;1.00
37530;DHT22;23374;52.758;6.872;2023-12-04T13:14:06;2.90;1.00
37530;DHT22;23374;52.758;6.872;2023-12-04T13:16:27;2.80;99.90
37530;DHT22;23374;52.758;6.872;2023-12-04T13:18:47;2.80;99.90
37530;DHT22;23374;52.758;6.872;2023-12-04T13:21:08;2.80;99.90
37530;DHT22;23374;52.758;6.872;2023-12-04T13:23:30;2.80;99.90
37530;DHT22;23374;52.758;6.872;2023-12-04T13:25:50;2.80;1.00
37530;DHT22;23374;52.758;6.872;2023-12-04T13:28:10;2.80;1.00
37530;DHT22;23374;52.758;6.872;2023-12-04T13:30:32;2.80;1.00
37530;DHT22;23374;52.758;6.872;2023-12-04T13:32:54;2.80;1.00
37530;DHT22;23374;52.758;6.872;2023-12-04T13:35:15;2.80;1.00
37530;DHT22;23374;52.758;6.872;2023-12-04T13:37:35;2.80;1.00
37530;DHT22;23374;52.758;6.872;2023-12-04T13:39:56;2.80;1.00
37530;DHT22;23374;52.758;6.872;2023-12-04T13:42:26;2.80;1.00
37530;DHT22;23374;52.758;6.872;2023-12-04T13:45:01;2.80;1.00
37530;DHT22;23374;52.758;6.872;2023-12-04T13:47:22;2.80;1.00
37530;DHT22;23374;52.758;6.872;2023-12-04T13:49:42;2.80;1.00
37530;DHT22;23374;52.758;6.872;2023-12-04T13:52:06;2.80;1.00
37530;DHT22;23374;52.758;6.872;2023-12-04T13:54:28;2.70;1.00
37530;DHT22;23374;52.758;6.872;2023-12-04T13:57:04;2.70;45.50
37530;DHT22;23374;52.758;6.872;2023-12-04T13:59:24;2.70;45.70
37530;DHT22;23374;52.758;6.872;2023-12-04T14:01:46;2.70;99.90
37530;DHT22;23374;52.758;6.872;2023-12-04T14:04:06;2.70;99.90
37530;DHT22;23374;52.758;6.872;2023-12-04T14:06:29;2.70;98.90
37530;DHT22;23374;52.758;6.872;2023-12-04T14:08:49;2.70;99.90
37530;DHT22;23374;52.758;6.872;2023-12-04T14:11:09;2.70;99.90
37530;DHT22;23374;52.758;6.872;2023-12-04T14:13:33;2.60;99.90
37530;DHT22;23374;52.758;6.872;2023-12-04T14:15:53;2.60;99.90
37530;DHT22;23374;52.758;6.872;2023-12-04T14:18:14;2.60;99.90
37530;DHT22;23374;52.758;6.872;2023-12-04T14:20:34;2.60;88.30
37530;DHT22;23374;52.758;6.872;2023-12-04T14:22:54;2.60;68.90
37530;DHT22;23374;52.758;6.872;2023-12-04T14:25:15;2.60;99.90
37530;DHT22;23374;52.758;6.872;2023-12-04T14:27:35;2.60;99.90
37530;DHT22;23374;52.758;6.872;2023-12-04T14:29:56;2.60;99.90
37530;DHT22;23374;52.758;6.872;2023-12-04T14:32:16;2.60;99.90
37530;DHT22;23374;52.758;6.872;2023-12-04T14:34:39;2.50;25.60
37530;DHT22;23374;52.758;6.872;2023-12-04T14:36:59;2.50;58.00
37530;DHT22;23374;52.758;6.872;2023-12-04T14:39:20;2.50;48.40
37530;DHT22;23374;52.758;6.872;2023-12-04T14:41:40;2.50;99.90
37530;DHT22;23374;52.758;6.872;2023-12-04T14:44:01;2.50;99.90
37530;DHT22;23374;52.758;6.872;2023-12-04T14:46:21;2.50;99.90
37530;DHT22;23374;52.758;6.872;2023-12-04T14:48:42;2.50;1.00
37530;DHT22;23374;52.758;6.872;2023-12-04T14:51:02;2.50;70.70
37530;DHT22;23374;52.758;6.872;2023-12-04T14:53:23;2.50;1.00
37530;DHT22;23374;52.758;6.872;2023-12-04T14:55:49;2.50;17.40
37530;DHT22;23374;52.758;6.872;2023-12-04T15:00:46;2.50;36.70
37530;DHT22;23374;52.758;6.872;2023-12-04T15:06:05;2.40;99.90
37530;DHT22;23374;52.758;6.872;2023-12-04T15:08:59;2.40;99.90
37530;DHT22;23374;52.758;6.872;2023-12-04T15:14:50;2.40;99.90
37530;DHT22;23374;52.758;6.872;2023-12-04T15:17:34;2.30;99.90
37530;DHT22;23374;52.758;6.872;2023-12-04T15:20:09;2.30;99.90
37530;DHT22;23374;52.758;6.872;2023-12-04T15:22:51;2.30;99.90
37530;DHT22;23374;52.758;6.872;2023-12-04T15:25:12;2.30;99.90
37530;DHT22;23374;52.758;6.872;2023-12-04T15:27:33;2.30;99.90